KSME/SME METAR and TAF weather

Enter ICAO airport designator
Station Type Date Time Source
KSME METAR 2019/04/20 22:35 UTC NOAA

KSME 202235Z AUTO 25005KT 10SM -RA SCT021 BKN027 OVC070 06/04 A2983 RMK AO2


Station Type Date Time Source
KSME Decoded METAR 2019/04/20 22:35 UTC NOAA

Somerset, Somerset-Pulaski County - J.T. Wilson Field Airport, KY, United States (KSME) 37-03-15N 084-36-54W
Apr 20, 2019 - 06:35 PM EDT / 2019.04.20 2235 UTC
Wind: from the WSW (250 degrees) at 6 MPH (5 KT):0
Visibility: 10 mile(s):0
Sky conditions: overcast
Weather: light rain
Temperature: 42 F (6 C)
Dew Point: 39 F (4 C)
Relative Humidity: 86%
Pressure (altimeter): 29.83 in. Hg (1010 hPa)
ob: KSME 202235Z AUTO 25005KT 10SM -RA SCT021 BKN027 OVC070 06/04 A2983 RMK AO2
cycle: 22

Station Type Date Time Source
KSME TAF 2019/04/20 18:24 UTC NOAA

TAF KSME 201721Z 2018/2118 26008KT 6SM -SHRA BR OVC010
FM210200 27006KT P6SM VCSH OVC009
FM210500 27005KT P6SM OVC006
FM211000 VRB04KT P6SM BKN007
FM211200 VRB04KT P6SM SCT009

Example: see airport list